Time;durP1;ratioP1;P1;durP2;ratioP2;P2;SDS_P1;SDS_P2;PMS_P1;PMS_P2;Temp;Humidity;BMP_temperature;BMP_pressure;BME280_temperature;BME280_humidity;BME280_pressure;Samples;Min_cycle;Max_cycle;Signal;HPM_P1;HPM_P2
2022/12/18 00:01:31;;;;;;;;;;;-2.70;99.90;;;;;;6247089;23;19903;-67
2022/12/18 00:03:57;;;;;;;;;;;-2.70;99.90;;;;;;6246724;23;19931;-66
2022/12/18 00:06:23;;;;;;;;;;;-2.60;99.90;;;;;;6247356;23;19907;-70
2022/12/18 00:08:48;;;;;;;;;;;-2.70;99.90;;;;;;6247081;23;19903;-68
2022/12/18 00:11:16;;;;;;;;;;;-2.60;99.90;;;;;;6246685;23;19900;-68
2022/12/18 00:13:41;;;;;;;;;;;-2.60;99.90;;;;;;6246693;23;19899;-69
2022/12/18 00:16:08;;;;;;;;;;;-2.60;99.90;;;;;;6247351;23;19942;-69
2022/12/18 00:18:33;;;;;;;;;;;-2.50;99.90;;;;;;6246990;23;19899;-65
2022/12/18 00:21:00;;;;;;;;;;;-2.50;99.90;;;;;;6246970;23;19906;-67
2022/12/18 00:23:26;;;;;;;;;;;-2.50;99.90;;;;;;6246555;23;19954;-64
2022/12/18 00:25:52;;;;;;;;;;;-2.50;99.90;;;;;;6247222;22;19900;-65
2022/12/18 00:28:17;;;;;;;;;;;-2.40;99.90;;;;;;6246846;23;19982;-68
2022/12/18 00:30:43;;;;;;;;;;;-2.30;99.90;;;;;;6246384;23;19907;-66
2022/12/18 00:33:08;;;;;;;;;;;-2.30;99.90;;;;;;6247339;23;19900;-64
2022/12/18 00:35:34;;;;;;;;;;;-2.30;99.90;;;;;;6246501;23;19907;-67
2022/12/18 00:37:59;;;;;;;;;;;-2.30;99.90;;;;;;6246502;23;19900;-67
2022/12/18 00:40:25;;;;;;;;;;;-2.30;99.90;;;;;;6246904;23;19949;-66
2022/12/18 00:42:56;;;;;;;;;;;-2.30;99.90;;;;;;6246406;23;20309;-66
2022/12/18 00:45:23;;;;;;;;;;;-2.20;99.90;;;;;;6246944;23;19942;-64
2022/12/18 00:47:48;;;;;;;;;;;-2.20;99.90;;;;;;6246490;23;19904;-64
2022/12/18 00:50:14;;;;;;;;;;;-2.20;99.90;;;;;;6246873;23;19974;-67
2022/12/18 00:52:39;;;;;;;;;;;-2.20;99.90;;;;;;6246780;23;19899;-69
2022/12/18 00:55:05;;;;;;;;;;;-2.20;99.90;;;;;;6246759;23;19900;-67
2022/12/18 00:57:30;;;;;;;;;;;-2.30;99.90;;;;;;6246453;23;20380;-66
2022/12/18 00:59:57;;;;;;;;;;;-2.30;99.90;;;;;;6246459;23;19899;-67
2022/12/18 01:02:22;;;;;;;;;;;-2.30;99.90;;;;;;6246788;23;19953;-68
2022/12/18 01:04:48;;;;;;;;;;;-2.30;99.90;;;;;;6246761;23;19904;-66
2022/12/18 01:07:13;;;;;;;;;;;-2.10;99.90;;;;;;6246386;23;19979;-68
2022/12/18 01:09:39;;;;;;;;;;;-2.20;99.90;;;;;;6247191;23;19906;-65
2022/12/18 01:12:05;;;;;;;;;;;-2.20;99.90;;;;;;6248384;23;19900;-65
2022/12/18 01:14:30;;;;;;;;;;;-2.30;99.90;;;;;;6248685;23;19905;-67
2022/12/18 01:16:56;;;;;;;;;;;-2.40;99.90;;;;;;6248347;23;19904;-68
2022/12/18 01:19:23;;;;;;;;;;;-2.30;99.90;;;;;;6249037;23;20330;-67
2022/12/18 01:21:49;;;;;;;;;;;-2.30;99.90;;;;;;6248190;23;19899;-66
2022/12/18 01:24:14;;;;;;;;;;;-2.30;99.90;;;;;;6248246;22;19907;-64
2022/12/18 01:26:40;;;;;;;;;;;-2.30;99.90;;;;;;6248706;23;20315;-68
2022/12/18 01:29:05;;;;;;;;;;;-2.20;99.90;;;;;;6248250;23;19899;-66
2022/12/18 01:31:33;;;;;;;;;;;-2.20;99.90;;;;;;6247948;23;20322;-67
2022/12/18 01:34:03;;;;;;;;;;;-2.20;99.90;;;;;;6248610;23;19925;-69
2022/12/18 01:36:32;;;;;;;;;;;-2.20;99.90;;;;;;6249200;23;20285;-68
2022/12/18 01:39:03;;;;;;;;;;;-2.20;99.90;;;;;;6248114;23;19903;-65
2022/12/18 01:42:01;;;;;;;;;;;-2.20;99.90;;;;;;6248804;23;19978;-66
2022/12/18 01:44:33;;;;;;;;;;;-2.20;99.90;;;;;;6247834;23;19931;-66
2022/12/18 01:46:59;;;;;;;;;;;-2.20;99.90;;;;;;6248357;23;19899;-67
2022/12/18 01:49:25;;;;;;;;;;;-2.20;99.90;;;;;;6248353;23;19931;-66
2022/12/18 01:51:50;;;;;;;;;;;-2.10;99.90;;;;;;6247991;23;19899;-65
2022/12/18 01:54:16;;;;;;;;;;;-2.10;99.90;;;;;;6247968;23;19974;-69
2022/12/18 01:56:41;;;;;;;;;;;-2.00;99.90;;;;;;6247974;23;19923;-64
2022/12/18 01:59:07;;;;;;;;;;;-2.00;99.90;;;;;;6247909;23;20234;-70
2022/12/18 02:01:33;;;;;;;;;;;-2.00;99.90;;;;;;6248530;23;19915;-66
2022/12/18 02:04:17;;;;;;;;;;;-2.10;99.90;;;;;;6247735;23;19942;-67
2022/12/18 02:06:43;;;;;;;;;;;-2.00;99.90;;;;;;6247834;23;19899;-68
2022/12/18 02:09:10;;;;;;;;;;;-2.00;99.90;;;;;;6248565;23;19903;-70
2022/12/18 02:11:44;;;;;;;;;;;-2.00;99.90;;;;;;6248156;23;19927;-67
2022/12/18 02:14:09;;;;;;;;;;;-2.00;99.90;;;;;;6248475;23;19900;-66
2022/12/18 02:16:54;;;;;;;;;;;-2.00;99.90;;;;;;6247770;23;19906;-65
2022/12/18 02:19:38;;;;;;;;;;;-2.10;99.90;;;;;;6248449;23;19900;-68
2022/12/18 02:22:06;;;;;;;;;;;-2.10;99.90;;;;;;6246941;23;19903;-67
2022/12/18 02:24:37;;;;;;;;;;;-2.00;99.90;;;;;;6248006;22;19903;-67
2022/12/18 02:27:04;;;;;;;;;;;-2.00;99.90;;;;;;6247732;23;20215;-68
2022/12/18 02:29:36;;;;;;;;;;;-1.90;99.90;;;;;;6248424;23;20207;-68
2022/12/18 02:32:03;;;;;;;;;;;-2.00;99.90;;;;;;6247169;23;19915;-70
2022/12/18 02:34:31;;;;;;;;;;;-1.90;99.90;;;;;;6247541;23;19903;-64
2022/12/18 02:36:57;;;;;;;;;;;-1.90;99.90;;;;;;6247696;23;19970;-67
2022/12/18 02:39:25;;;;;;;;;;;-2.00;99.90;;;;;;6247592;23;19934;-68
2022/12/18 02:41:50;;;;;;;;;;;-2.00;99.90;;;;;;6247772;23;19907;-67
2022/12/18 02:44:16;;;;;;;;;;;-2.00;99.90;;;;;;6247527;23;19900;-70
2022/12/18 02:46:44;;;;;;;;;;;-1.90;99.90;;;;;;6247543;23;20281;-67
2022/12/18 02:49:28;;;;;;;;;;;-1.80;99.90;;;;;;6248209;23;19899;-68
2022/12/18 02:51:57;;;;;;;;;;;-1.80;99.90;;;;;;6247398;23;19900;-68
2022/12/18 02:54:35;;;;;;;;;;;-1.80;99.90;;;;;;6247352;23;19899;-69
2022/12/18 02:57:07;;;;;;;;;;;-1.70;99.90;;;;;;6248079;23;19947;-68
2022/12/18 02:59:45;;;;;;;;;;;-1.60;99.90;;;;;;6247770;23;19922;-68
2022/12/18 03:02:18;;;;;;;;;;;-1.60;99.90;;;;;;6247674;23;20303;-66
2022/12/18 03:04:47;;;;;;;;;;;-1.50;99.90;;;;;;6247723;23;19906;-69
2022/12/18 03:07:17;;;;;;;;;;;-1.40;99.90;;;;;;6247344;23;19899;-68
2022/12/18 03:09:45;;;;;;;;;;;-1.40;99.90;;;;;;6247252;23;20310;-65
2022/12/18 03:12:23;;;;;;;;;;;-1.50;99.90;;;;;;6247891;23;19899;-67
2022/12/18 03:14:51;;;;;;;;;;;-1.50;99.90;;;;;;6247578;23;19935;-67
2022/12/18 03:17:18;;;;;;;;;;;-1.50;99.90;;;;;;6247911;23;19899;-66
2022/12/18 03:19:45;;;;;;;;;;;-1.30;99.90;;;;;;6247496;23;20337;-68
2022/12/18 03:22:12;;;;;;;;;;;-1.30;99.90;;;;;;6247827;23;19911;-69
2022/12/18 03:24:39;;;;;;;;;;;-1.30;99.90;;;;;;6246975;22;19922;-65
2022/12/18 03:27:07;;;;;;;;;;;-1.30;99.90;;;;;;6247942;23;20307;-68
2022/12/18 03:29:35;;;;;;;;;;;-1.40;99.90;;;;;;6247120;23;19922;-68
2022/12/18 03:32:19;;;;;;;;;;;-1.40;99.90;;;;;;6246623;23;19911;-67
2022/12/18 03:34:47;;;;;;;;;;;-1.40;99.90;;;;;;6247348;23;19944;-70
2022/12/18 03:37:12;;;;;;;;;;;-1.30;99.90;;;;;;6247050;23;19923;-65
2022/12/18 03:39:38;;;;;;;;;;;-1.40;99.90;;;;;;6247671;23;20317;-69
2022/12/18 03:42:21;;;;;;;;;;;-1.30;99.90;;;;;;6246911;23;19903;-66
2022/12/18 03:44:49;;;;;;;;;;;-1.30;99.90;;;;;;6247717;23;19899;-69
2022/12/18 03:47:15;;;;;;;;;;;-1.30;99.90;;;;;;6246991;23;19970;-67
2022/12/18 03:50:07;;;;;;;;;;;-1.20;99.90;;;;;;6246874;23;20314;-68
2022/12/18 03:52:32;;;;;;;;;;;-1.30;99.90;;;;;;6239563;23;19934;-67
2022/12/18 03:54:59;;;;;;;;;;;-1.20;99.90;;;;;;6246826;23;19910;-70
2022/12/18 03:57:28;;;;;;;;;;;-1.20;99.90;;;;;;6247498;23;19900;-68
2022/12/18 04:00:00;;;;;;;;;;;-1.20;99.90;;;;;;6246754;23;19900;-69
2022/12/18 04:02:25;;;;;;;;;;;-1.20;99.90;;;;;;6247072;23;20277;-70
2022/12/18 04:04:53;;;;;;;;;;;-1.20;99.90;;;;;;6247488;23;19900;-67
2022/12/18 04:07:18;;;;;;;;;;;-1.20;99.90;;;;;;6246767;23;19982;-66
2022/12/18 04:09:45;;;;;;;;;;;-1.20;99.90;;;;;;6246821;23;19906;-68
2022/12/18 04:12:10;;;;;;;;;;;-1.10;99.90;;;;;;6246725;23;19899;-66
2022/12/18 04:14:36;;;;;;;;;;;-1.10;99.90;;;;;;6246751;23;19907;-67
2022/12/18 04:17:02;;;;;;;;;;;-1.10;99.90;;;;;;6247391;23;19954;-66
2022/12/18 04:19:28;;;;;;;;;;;-1.00;99.90;;;;;;6246707;23;19903;-71
2022/12/18 04:21:53;;;;;;;;;;;-0.90;99.90;;;;;;6247225;23;19900;-68
2022/12/18 04:24:19;;;;;;;;;;;-0.90;99.90;;;;;;6246586;22;19907;-65
2022/12/18 04:26:44;;;;;;;;;;;-0.90;99.90;;;;;;6246522;23;19899;-67
2022/12/18 04:29:10;;;;;;;;;;;-0.90;99.90;;;;;;6246646;23;19907;-69
2022/12/18 04:31:36;;;;;;;;;;;-0.90;99.90;;;;;;6246390;23;20278;-65
2022/12/18 04:34:01;;;;;;;;;;;-0.90;99.90;;;;;;6246569;23;19933;-65
2022/12/18 04:36:27;;;;;;;;;;;-0.80;99.90;;;;;;6247319;23;19954;-70
2022/12/18 04:38:52;;;;;;;;;;;-0.80;99.90;;;;;;6246704;23;19899;-69
2022/12/18 04:41:18;;;;;;;;;;;-0.80;99.90;;;;;;6246910;23;20306;-68
2022/12/18 04:43:43;;;;;;;;;;;-0.80;99.90;;;;;;6246441;23;19910;-64
2022/12/18 04:46:09;;;;;;;;;;;-0.80;99.90;;;;;;6248466;23;19900;-65
2022/12/18 04:48:35;;;;;;;;;;;-0.80;99.90;;;;;;6249120;23;19982;-67
2022/12/18 04:51:01;;;;;;;;;;;-0.80;99.90;;;;;;6248712;23;19899;-70
2022/12/18 04:53:26;;;;;;;;;;;-0.70;99.90;;;;;;6248966;23;19899;-66
2022/12/18 04:56:02;;;;;;;;;;;-0.70;99.90;;;;;;6248518;23;19950;-68
2022/12/18 04:58:28;;;;;;;;;;;-0.70;99.90;;;;;;6248924;23;19907;-68
2022/12/18 05:00:53;;;;;;;;;;;-0.70;99.90;;;;;;6248479;23;19899;-66
2022/12/18 05:03:19;;;;;;;;;;;-0.70;99.90;;;;;;6248724;23;20248;-66
2022/12/18 05:05:44;;;;;;;;;;;-0.60;99.90;;;;;;6248440;23;19900;-69
2022/12/18 05:08:10;;;;;;;;;;;-0.60;99.90;;;;;;6248539;23;19907;-65
2022/12/18 05:10:35;;;;;;;;;;;-0.60;99.90;;;;;;6248831;23;19937;-68
2022/12/18 05:13:01;;;;;;;;;;;-0.60;99.90;;;;;;6248499;23;19937;-66
2022/12/18 05:15:27;;;;;;;;;;;-0.70;99.90;;;;;;6248860;23;20323;-65
2022/12/18 05:17:53;;;;;;;;;;;-0.70;99.90;;;;;;6248331;23;19981;-67
2022/12/18 05:20:18;;;;;;;;;;;-0.60;99.90;;;;;;6249038;23;19903;-69
2022/12/18 05:22:44;;;;;;;;;;;-0.70;99.90;;;;;;6248181;23;19904;-65
2022/12/18 05:25:09;;;;;;;;;;;-0.60;99.90;;;;;;6248252;22;19900;-67
2022/12/18 05:27:35;;;;;;;;;;;-0.50;99.90;;;;;;6248307;23;19900;-70
2022/12/18 05:30:00;;;;;;;;;;;-0.60;99.90;;;;;;6248977;23;19900;-68
2022/12/18 05:32:26;;;;;;;;;;;-0.60;99.90;;;;;;6247708;23;19911;-68
2022/12/18 05:34:51;;;;;;;;;;;-0.60;99.90;;;;;;6248942;23;19900;-65
2022/12/18 05:37:17;;;;;;;;;;;-0.50;99.90;;;;;;6248175;23;19923;-66
2022/12/18 05:39:43;;;;;;;;;;;-0.40;99.90;;;;;;6248558;23;19931;-71
2022/12/18 05:42:08;;;;;;;;;;;-0.50;99.90;;;;;;6248062;23;20318;-71
2022/12/18 05:44:34;;;;;;;;;;;-0.40;99.90;;;;;;6248540;23;19934;-67
2022/12/18 05:46:59;;;;;;;;;;;-0.40;99.90;;;;;;6248118;23;19900;-68
2022/12/18 05:49:26;;;;;;;;;;;-0.40;99.90;;;;;;6248555;23;19954;-68
2022/12/18 05:51:51;;;;;;;;;;;-0.30;99.90;;;;;;6220935;23;19899;-68
2022/12/18 05:54:17;;;;;;;;;;;-0.30;99.90;;;;;;6248106;23;19946;-67
2022/12/18 05:56:42;;;;;;;;;;;-0.30;99.90;;;;;;6247980;23;19900;-67
2022/12/18 05:59:08;;;;;;;;;;;-0.30;99.90;;;;;;6248711;23;19904;-68
2022/12/18 06:01:34;;;;;;;;;;;-0.30;99.90;;;;;;6248002;23;19942;-66
2022/12/18 06:03:59;;;;;;;;;;;-0.20;99.90;;;;;;6248226;23;19904;-70
2022/12/18 06:06:26;;;;;;;;;;;-0.20;99.90;;;;;;6247962;23;19903;-68
2022/12/18 06:08:51;;;;;;;;;;;-0.20;99.90;;;;;;6248298;23;19922;-69
2022/12/18 06:11:21;;;;;;;;;;;-0.20;99.90;;;;;;6248009;23;20350;-68
2022/12/18 06:13:49;;;;;;;;;;;-0.20;99.90;;;;;;6247732;23;20321;-68
2022/12/18 06:16:15;;;;;;;;;;;-0.10;99.90;;;;;;6247871;23;19907;-67
2022/12/18 06:18:40;;;;;;;;;;;-0.10;99.90;;;;;;6247785;23;19900;-66
2022/12/18 06:21:06;;;;;;;;;;;-0.20;99.90;;;;;;6248174;23;19900;-69
2022/12/18 06:23:31;;;;;;;;;;;-0.20;99.90;;;;;;6248076;23;19910;-65
2022/12/18 06:25:57;;;;;;;;;;;-0.10;99.90;;;;;;6248344;22;19900;-68
2022/12/18 06:28:23;;;;;;;;;;;-0.10;99.90;;;;;;6248035;23;19954;-71
2022/12/18 06:30:49;;;;;;;;;;;-0.10;99.90;;;;;;6247546;23;19923;-67
2022/12/18 06:33:15;;;;;;;;;;;0.00;99.90;;;;;;6247766;23;19900;-66
2022/12/18 06:35:40;;;;;;;;;;;0.00;99.90;;;;;;6247675;23;19900;-69
2022/12/18 06:38:06;;;;;;;;;;;-0.10;99.90;;;;;;6247667;23;19904;-66
2022/12/18 06:40:33;;;;;;;;;;;0.10;99.90;;;;;;6247680;23;19987;-68
2022/12/18 06:42:58;;;;;;;;;;;0.00;99.90;;;;;;6220248;23;20388;-64
2022/12/18 06:45:24;;;;;;;;;;;0.10;99.90;;;;;;6247945;23;19903;-67
2022/12/18 06:47:50;;;;;;;;;;;0.10;99.90;;;;;;6247572;23;19900;-65
2022/12/18 06:50:15;;;;;;;;;;;0.10;99.90;;;;;;6247504;23;19899;-66
2022/12/18 06:52:42;;;;;;;;;;;0.10;99.90;;;;;;6248255;23;19907;-66
2022/12/18 06:55:08;;;;;;;;;;;0.20;99.90;;;;;;6247452;23;19899;-67
2022/12/18 06:57:33;;;;;;;;;;;0.20;99.90;;;;;;6247530;23;20353;-66
2022/12/18 06:59:59;;;;;;;;;;;0.20;99.90;;;;;;6247359;23;19899;-65
2022/12/18 07:02:24;;;;;;;;;;;0.20;99.90;;;;;;6247256;23;19907;-67
2022/12/18 07:04:50;;;;;;;;;;;0.30;99.90;;;;;;6247404;23;20234;-66
2022/12/18 07:07:16;;;;;;;;;;;0.30;99.90;;;;;;6247100;23;19906;-66
2022/12/18 07:09:41;;;;;;;;;;;0.30;99.90;;;;;;6247308;23;20340;-69
2022/12/18 07:12:07;;;;;;;;;;;0.30;99.90;;;;;;6247607;23;19900;-66
2022/12/18 07:14:33;;;;;;;;;;;0.30;99.90;;;;;;6247598;23;19899;-71
2022/12/18 07:16:59;;;;;;;;;;;0.40;99.90;;;;;;6247565;23;20207;-68
2022/12/18 07:19:24;;;;;;;;;;;0.40;99.90;;;;;;6247257;23;19949;-66
2022/12/18 07:21:50;;;;;;;;;;;0.40;99.90;;;;;;6247411;23;20212;-69
2022/12/18 07:24:16;;;;;;;;;;;0.40;99.90;;;;;;6247014;22;19899;-67
2022/12/18 07:26:41;;;;;;;;;;;0.50;99.90;;;;;;6247194;23;19899;-68
2022/12/18 07:29:07;;;;;;;;;;;0.50;99.90;;;;;;6247448;23;19899;-71
2022/12/18 07:31:32;;;;;;;;;;;0.50;99.90;;;;;;6219930;23;20242;-67
2022/12/18 07:33:58;;;;;;;;;;;0.50;99.90;;;;;;6247342;23;19908;-66
2022/12/18 07:36:23;;;;;;;;;;;0.60;99.90;;;;;;6220272;23;19903;-67
2022/12/18 07:38:49;;;;;;;;;;;0.70;99.90;;;;;;6247102;23;19907;-67
2022/12/18 07:41:15;;;;;;;;;;;0.70;99.90;;;;;;6247326;23;19899;-66
2022/12/18 07:43:41;;;;;;;;;;;0.70;99.90;;;;;;6246829;23;20333;-65
2022/12/18 07:46:07;;;;;;;;;;;0.70;99.90;;;;;;6247642;23;19900;-65
2022/12/18 07:48:33;;;;;;;;;;;0.70;99.90;;;;;;6247003;23;19900;-70
2022/12/18 07:50:59;;;;;;;;;;;0.70;99.90;;;;;;6246937;23;19953;-68
2022/12/18 07:53:25;;;;;;;;;;;0.80;99.90;;;;;;6246892;23;19903;-65
2022/12/18 07:55:54;;;;;;;;;;;0.80;99.90;;;;;;6246910;23;20280;-67
2022/12/18 07:58:20;;;;;;;;;;;0.80;99.90;;;;;;6246920;23;19922;-67
2022/12/18 08:00:46;;;;;;;;;;;0.80;99.90;;;;;;6247179;23;20306;-67
2022/12/18 08:03:13;;;;;;;;;;;0.80;99.90;;;;;;6246834;23;19903;-65
2022/12/18 08:05:38;;;;;;;;;;;0.80;99.90;;;;;;6247232;23;19903;-70
2022/12/18 08:08:04;;;;;;;;;;;0.90;99.90;;;;;;6246752;23;20310;-65
2022/12/18 08:10:29;;;;;;;;;;;0.90;99.90;;;;;;6247212;23;19899;-64
2022/12/18 08:12:55;;;;;;;;;;;0.90;99.90;;;;;;6246777;23;19900;-70
2022/12/18 08:15:20;;;;;;;;;;;0.90;99.90;;;;;;6246668;23;19900;-67
2022/12/18 08:17:46;;;;;;;;;;;1.00;99.90;;;;;;6247044;23;20336;-66
2022/12/18 08:20:13;;;;;;;;;;;1.10;99.90;;;;;;6219853;23;19990;-68
2022/12/18 08:22:39;;;;;;;;;;;1.10;99.90;;;;;;6246562;23;19908;-69
2022/12/18 08:25:05;;;;;;;;;;;1.10;99.90;;;;;;6246818;22;19930;-65
2022/12/18 08:27:30;;;;;;;;;;;1.10;99.90;;;;;;6246805;23;19974;-69
2022/12/18 08:29:56;;;;;;;;;;;1.10;99.90;;;;;;6246671;23;20219;-67
2022/12/18 08:32:22;;;;;;;;;;;1.10;99.90;;;;;;6246221;23;19911;-66
2022/12/18 08:34:47;;;;;;;;;;;1.20;99.90;;;;;;6246740;23;19923;-67
2022/12/18 08:37:13;;;;;;;;;;;1.20;99.90;;;;;;6246575;23;20280;-71
2022/12/18 08:39:38;;;;;;;;;;;1.20;99.90;;;;;;6246593;23;19903;-69
2022/12/18 08:44:48;;;;;;;;;;;1.30;99.90;;;;;;6246663;23;20033;-68
2022/12/18 08:47:13;;;;;;;;;;;1.30;99.90;;;;;;6246518;23;19899;-69
2022/12/18 08:49:39;;;;;;;;;;;1.40;99.90;;;;;;6247280;23;20273;-65
2022/12/18 08:52:04;;;;;;;;;;;1.40;99.90;;;;;;6246563;23;19899;-68
2022/12/18 08:54:30;;;;;;;;;;;1.40;99.90;;;;;;6246854;23;20273;-65
2022/12/18 08:56:55;;;;;;;;;;;1.50;99.90;;;;;;6246450;23;19900;-66
2022/12/18 08:59:21;;;;;;;;;;;1.50;99.90;;;;;;6246888;23;19970;-69
2022/12/18 09:01:47;;;;;;;;;;;1.50;99.90;;;;;;6246492;23;20229;-66
2022/12/18 09:04:13;;;;;;;;;;;1.50;99.90;;;;;;6246754;23;20373;-65
2022/12/18 09:06:39;;;;;;;;;;;1.60;99.90;;;;;;6246790;23;19982;-69
2022/12/18 09:09:05;;;;;;;;;;;1.60;99.90;;;;;;6246406;23;19969;-67
2022/12/18 09:11:31;;;;;;;;;;;1.60;99.90;;;;;;6246444;23;19953;-69
2022/12/18 09:13:57;;;;;;;;;;;1.60;99.90;;;;;;6246433;23;19923;-69
2022/12/18 09:16:23;;;;;;;;;;;1.60;99.90;;;;;;6246377;23;19907;-67
2022/12/18 09:18:48;;;;;;;;;;;1.70;99.90;;;;;;6246421;23;19903;-69
2022/12/18 09:21:15;;;;;;;;;;;1.70;99.90;;;;;;6246494;23;19975;-66
2022/12/18 09:23:41;;;;;;;;;;;1.80;99.90;;;;;;6246307;23;20413;-65
2022/12/18 09:26:07;;;;;;;;;;;1.70;99.90;;;;;;6246712;23;19899;-64
2022/12/18 09:28:33;;;;;;;;;;;1.80;99.90;;;;;;6246373;23;20276;-65
2022/12/18 09:30:58;;;;;;;;;;;1.80;99.90;;;;;;6247103;23;19919;-67
2022/12/18 09:33:24;;;;;;;;;;;1.90;99.90;;;;;;6248704;23;20234;-69
2022/12/18 09:35:49;;;;;;;;;;;1.90;99.90;;;;;;6248319;23;19899;-68
2022/12/18 09:38:16;;;;;;;;;;;1.90;99.90;;;;;;6248813;23;19906;-66
2022/12/18 09:40:50;;;;;;;;;;;2.10;99.90;;;;;;6248151;23;19900;-67
2022/12/18 09:43:19;;;;;;;;;;;2.00;99.90;;;;;;6248882;23;20298;-64
2022/12/18 09:45:52;;;;;;;;;;;2.00;99.90;;;;;;6248152;23;19904;-69
2022/12/18 09:48:28;;;;;;;;;;;2.10;99.90;;;;;;6248179;23;19899;-67
2022/12/18 09:50:57;;;;;;;;;;;2.10;99.90;;;;;;6248538;23;19906;-67
2022/12/18 09:53:24;;;;;;;;;;;2.10;99.90;;;;;;6248060;23;19899;-68
2022/12/18 09:55:50;;;;;;;;;;;2.10;99.90;;;;;;6248189;23;19900;-65
2022/12/18 09:58:19;;;;;;;;;;;2.00;99.90;;;;;;6247992;23;20314;-67
2022/12/18 10:00:44;;;;;;;;;;;2.10;99.90;;;;;;6248280;23;20014;-68
2022/12/18 10:03:11;;;;;;;;;;;2.10;99.90;;;;;;6248319;23;19958;-66
2022/12/18 10:05:36;;;;;;;;;;;2.10;99.90;;;;;;6248073;23;20318;-66
2022/12/18 10:08:16;;;;;;;;;;;2.10;99.90;;;;;;6247956;23;19899;-66
2022/12/18 10:10:53;;;;;;;;;;;2.20;99.90;;;;;;6248651;23;19945;-67
2022/12/18 10:13:29;;;;;;;;;;;2.30;99.90;;;;;;6247989;23;19900;-66
2022/12/18 10:16:13;;;;;;;;;;;2.30;99.90;;;;;;6248711;23;19931;-65
2022/12/18 10:18:57;;;;;;;;;;;2.30;99.90;;;;;;6247857;23;20250;-69
2022/12/18 10:21:37;;;;;;;;;;;2.30;99.90;;;;;;6247900;23;19994;-66
2022/12/18 10:24:19;;;;;;;;;;;2.30;99.90;;;;;;6248068;22;19910;-67
2022/12/18 10:26:44;;;;;;;;;;;2.30;99.90;;;;;;6247754;23;19907;-69
2022/12/18 10:29:13;;;;;;;;;;;2.30;99.90;;;;;;6248074;23;19899;-67
2022/12/18 10:31:39;;;;;;;;;;;2.40;99.90;;;;;;6247598;23;19982;-67
2022/12/18 10:34:09;;;;;;;;;;;2.50;99.90;;;;;;6247802;23;19981;-69
2022/12/18 10:36:34;;;;;;;;;;;2.50;99.90;;;;;;6248059;23;19899;-64
2022/12/18 10:39:23;;;;;;;;;;;2.50;99.90;;;;;;6247965;23;19899;-66
2022/12/18 10:41:49;;;;;;;;;;;2.60;99.90;;;;;;6227178;23;19903;-66
2022/12/18 10:44:17;;;;;;;;;;;2.70;99.90;;;;;;6247681;23;20204;-66
2022/12/18 10:46:44;;;;;;;;;;;2.60;99.90;;;;;;6247565;23;19922;-66
2022/12/18 10:49:21;;;;;;;;;;;2.70;99.90;;;;;;6247632;23;19899;-71
2022/12/18 10:51:47;;;;;;;;;;;2.70;99.90;;;;;;6247920;23;19900;-68
2022/12/18 10:54:17;;;;;;;;;;;2.70;99.90;;;;;;6220494;23;19978;-66
2022/12/18 10:56:42;;;;;;;;;;;2.70;99.90;;;;;;6247520;23;19903;-67
2022/12/18 10:59:09;;;;;;;;;;;2.80;99.90;;;;;;6247788;23;19930;-68
2022/12/18 11:01:46;;;;;;;;;;;2.80;99.90;;;;;;6247477;23;19931;-69
2022/12/18 11:04:15;;;;;;;;;;;2.80;99.90;;;;;;6247759;23;19930;-67
2022/12/18 11:07:00;;;;;;;;;;;2.80;99.90;;;;;;6247427;23;19907;-64
2022/12/18 11:09:31;;;;;;;;;;;2.80;99.90;;;;;;6247423;23;19899;-65
2022/12/18 11:11:59;;;;;;;;;;;2.90;99.90;;;;;;6247011;23;19953;-65
2022/12/18 11:14:29;;;;;;;;;;;3.00;99.90;;;;;;6247320;23;19910;-69
2022/12/18 11:16:56;;;;;;;;;;;3.00;99.90;;;;;;6247065;23;19916;-69
2022/12/18 11:19:26;;;;;;;;;;;3.10;99.90;;;;;;6248105;23;19899;-70
2022/12/18 11:21:51;;;;;;;;;;;3.10;99.90;;;;;;6247712;23;19899;-68
2022/12/18 11:24:25;;;;;;;;;;;3.10;99.90;;;;;;6247105;22;19919;-66
2022/12/18 11:26:51;;;;;;;;;;;3.20;99.90;;;;;;6246753;23;19900;-68
2022/12/18 11:29:18;;;;;;;;;;;3.20;99.90;;;;;;6247278;23;19979;-69
2022/12/18 11:31:43;;;;;;;;;;;3.20;99.90;;;;;;6247003;23;19916;-69
2022/12/18 11:34:14;;;;;;;;;;;3.10;99.90;;;;;;6247107;23;19903;-66
2022/12/18 11:36:42;;;;;;;;;;;3.20;99.90;;;;;;6247536;23;19927;-70
2022/12/18 11:39:26;;;;;;;;;;;3.20;99.90;;;;;;6247062;23;19899;-67
2022/12/18 11:42:09;;;;;;;;;;;3.20;99.90;;;;;;6247139;23;19900;-68
2022/12/18 11:44:51;;;;;;;;;;;3.20;99.90;;;;;;6247774;23;19910;-68
2022/12/18 11:47:35;;;;;;;;;;;3.30;99.90;;;;;;6246849;23;19938;-70
2022/12/18 11:50:02;;;;;;;;;;;3.30;99.90;;;;;;6247729;23;19900;-66
2022/12/18 11:52:38;;;;;;;;;;;3.30;99.90;;;;;;6247045;23;20313;-65
2022/12/18 11:55:11;;;;;;;;;;;3.40;99.90;;;;;;6247248;23;19900;-71
2022/12/18 11:57:45;;;;;;;;;;;3.50;99.90;;;;;;6246932;23;19907;-68
2022/12/18 12:00:14;;;;;;;;;;;3.50;99.90;;;;;;6247685;23;19903;-67
2022/12/18 12:02:58;;;;;;;;;;;3.60;99.90;;;;;;6247176;23;19910;-66
2022/12/18 12:06:02;;;;;;;;;;;3.60;99.90;;;;;;6247582;23;19903;-67
2022/12/18 12:08:51;;;;;;;;;;;3.70;99.90;;;;;;6095331;23;19901;-69
2022/12/18 12:11:28;;;;;;;;;;;3.70;99.90;;;;;;6068978;23;19901;-69
2022/12/18 12:14:21;;;;;;;;;;;3.80;99.90;;;;;;6201564;23;19928;-68
2022/12/18 12:16:52;;;;;;;;;;;3.80;99.90;;;;;;6247650;23;20316;-70
2022/12/18 12:19:36;;;;;;;;;;;3.90;99.90;;;;;;6246778;23;19923;-70
2022/12/18 12:22:11;;;;;;;;;;;3.90;99.90;;;;;;6246609;23;20377;-70
2022/12/18 12:24:46;;;;;;;;;;;4.00;99.90;;;;;;6246398;22;20230;-65
2022/12/18 12:27:12;;;;;;;;;;;4.00;99.90;;;;;;6247111;23;19899;-69
2022/12/18 12:29:40;;;;;;;;;;;4.00;99.90;;;;;;6246668;23;19907;-68
2022/12/18 12:32:25;;;;;;;;;;;4.00;99.90;;;;;;6246349;23;19916;-68
2022/12/18 12:35:00;;;;;;;;;;;4.10;99.90;;;;;;6247495;23;19900;-69
2022/12/18 12:37:25;;;;;;;;;;;4.10;99.90;;;;;;6246712;23;20417;-68
2022/12/18 12:39:52;;;;;;;;;;;4.10;99.90;;;;;;6246658;23;19927;-65
2022/12/18 12:45:28;;;;;;;;;;;4.40;99.90;;;;;;6247063;23;19987;-66
2022/12/18 12:47:54;;;;;;;;;;;4.60;99.90;;;;;;6246694;23;19900;-67
2022/12/18 12:50:20;;;;;;;;;;;4.70;99.90;;;;;;6246617;23;19914;-68
2022/12/18 12:52:48;;;;;;;;;;;4.70;99.90;;;;;;6246510;23;19900;-68
2022/12/18 12:55:17;;;;;;;;;;;4.80;99.90;;;;;;6246869;23;19907;-68
2022/12/18 12:57:50;;;;;;;;;;;4.80;99.90;;;;;;6246784;23;20302;-65
2022/12/18 13:00:17;;;;;;;;;;;4.90;99.90;;;;;;6247315;23;19899;-67
2022/12/18 13:02:43;;;;;;;;;;;5.00;99.90;;;;;;6246454;23;19904;-65
2022/12/18 13:05:27;;;;;;;;;;;5.00;99.90;;;;;;6246932;23;19903;-67
2022/12/18 13:07:56;;;;;;;;;;;5.10;99.90;;;;;;6248648;23;19900;-70
2022/12/18 13:10:32;;;;;;;;;;;5.10;99.90;;;;;;6248622;23;20026;-69
2022/12/18 13:13:00;;;;;;;;;;;5.10;99.90;;;;;;6248899;23;19939;-69
2022/12/18 13:15:45;;;;;;;;;;;5.00;99.90;;;;;;6248561;23;19906;-65
2022/12/18 13:18:10;;;;;;;;;;;4.90;99.90;;;;;;6248801;23;19907;-65
2022/12/18 13:20:37;;;;;;;;;;;5.00;99.90;;;;;;6248413;23;19899;-67
2022/12/18 13:23:22;;;;;;;;;;;5.00;99.90;;;;;;6248687;23;19990;-66
2022/12/18 13:25:47;;;;;;;;;;;5.00;99.90;;;;;;6248334;22;19906;-71
2022/12/18 13:28:14;;;;;;;;;;;5.00;99.90;;;;;;6248396;23;19899;-68
2022/12/18 13:30:45;;;;;;;;;;;5.10;99.90;;;;;;6248152;23;19961;-69
2022/12/18 13:33:14;;;;;;;;;;;5.10;99.90;;;;;;6248679;23;20317;-68
2022/12/18 13:36:00;;;;;;;;;;;5.10;99.90;;;;;;6248715;23;19899;-67
2022/12/18 13:38:28;;;;;;;;;;;5.20;99.90;;;;;;6247376;23;19906;-66
2022/12/18 13:40:54;;;;;;;;;;;5.20;99.90;;;;;;6248306;23;19900;-70
2022/12/18 13:43:20;;;;;;;;;;;5.20;99.90;;;;;;6248000;23;19911;-67
2022/12/18 13:45:49;;;;;;;;;;;5.20;99.90;;;;;;6248226;23;19899;-64
2022/12/18 13:48:19;;;;;;;;;;;5.10;99.90;;;;;;6248537;23;19903;-67
2022/12/18 13:50:48;;;;;;;;;;;5.10;99.90;;;;;;6248117;23;19906;-67
2022/12/18 13:53:21;;;;;;;;;;;5.10;99.90;;;;;;6248501;23;19976;-71
2022/12/18 13:55:46;;;;;;;;;;;5.10;99.90;;;;;;6248142;23;19970;-69
2022/12/18 13:58:12;;;;;;;;;;;5.20;99.90;;;;;;6248583;23;19926;-69
2022/12/18 14:00:41;;;;;;;;;;;5.20;99.90;;;;;;6248097;23;19903;-69
2022/12/18 14:03:25;;;;;;;;;;;5.20;99.90;;;;;;6248355;23;19962;-66
2022/12/18 14:05:56;;;;;;;;;;;5.20;99.90;;;;;;6247998;23;19907;-67
2022/12/18 14:08:23;;;;;;;;;;;5.20;99.90;;;;;;6247929;23;19925;-68
2022/12/18 14:10:49;;;;;;;;;;;5.20;99.90;;;;;;6248682;23;20294;-68
2022/12/18 14:13:35;;;;;;;;;;;5.20;99.90;;;;;;6247990;23;19978;-68
2022/12/18 14:16:01;;;;;;;;;;;5.20;99.90;;;;;;6247081;23;19899;-66
2022/12/18 14:18:30;;;;;;;;;;;5.30;99.90;;;;;;6248580;23;20361;-67
2022/12/18 14:20:57;;;;;;;;;;;5.30;99.90;;;;;;6247718;23;19899;-67
2022/12/18 14:23:38;;;;;;;;;;;5.30;99.90;;;;;;6248651;23;19910;-66
2022/12/18 14:26:20;;;;;;;;;;;5.30;99.90;;;;;;6247696;22;19900;-67
2022/12/18 14:28:45;;;;;;;;;;;5.30;99.90;;;;;;6248490;23;19903;-66
2022/12/18 14:31:26;;;;;;;;;;;5.30;99.90;;;;;;6247502;23;19943;-69
2022/12/18 14:33:53;;;;;;;;;;;5.40;99.90;;;;;;6247908;23;19983;-65
2022/12/18 14:36:20;;;;;;;;;;;5.40;99.90;;;;;;6247742;23;20345;-67
2022/12/18 14:38:50;;;;;;;;;;;5.40;99.90;;;;;;6247853;23;19923;-68